Terminal Aerodrome Forecast
Issued by NWS

Current Version | Previous Version | Text Only | Print | Product List | Glossary On
Versions: 1 2 3 4 5 6 7 8 9 10 11 12
993
FTAK31 PAJN 200525
TAFAYA
TAF
PAYA 200525Z 2006/2106 10005KT P6SM -SHRA SCT015 OVC025
      TEMPO 2006/2008 -SHRA OVC015
     FM201500 20004KT P6SM VCSH SCT025 OVC050
     FM202100 12008KT 6SM -SHRA SCT025 OVC040
      AMD LTD TO CLD VIS AND WIND=

USA.gov is the U.S. government's official web portal to all federal, state and local government web resources and services.